Terminal Aerodrome Forecast
Issued by NWS Boston, MA

Home | Current Version | Previous Version | Text Only | Print | Product List | Glossary On
Versions: 1 2 3 4 5 6 7 8 9 10 11 12 13 14 15 16 17 18 19 20 21 22 23 24
000
FTUS41 KBOX 252326
TAFBDL
TAF
KBDL 252326Z 2600/2706 23008KT P6SM -SHRA VCTS SCT050CB BKN090
      OVC250
     FM260200 24004KT P6SM VCSH SCT050 BKN120
     FM260300 24004KT P6SM FEW050 BKN150
     FM260500 VRB03KT 5SM BR FEW250
     FM261100 27004KT P6SM SKC
     FM261600 29008KT P6SM SKC
     FM270200 31004KT P6SM SKC=

USA.gov is the U.S. government's official web portal to all federal, state and local government web resources and services.